createdAt,value
2023-04-18T00:01:44.854Z,12.60
2023-04-18T00:04:12.622Z,12.60
2023-04-18T00:06:39.987Z,12.70
2023-04-18T00:09:06.767Z,12.70
2023-04-18T00:11:34.569Z,12.70
2023-04-18T00:14:01.334Z,12.70
2023-04-18T00:16:28.476Z,12.70
2023-04-18T00:18:57.180Z,12.70
2023-04-18T00:21:25.692Z,12.70
2023-04-18T00:23:52.724Z,12.60
2023-04-18T00:26:19.673Z,12.60
2023-04-18T00:28:46.558Z,12.60
2023-04-18T00:31:13.464Z,12.60
2023-04-18T00:33:40.406Z,12.50
2023-04-18T00:36:07.360Z,12.40
2023-04-18T00:38:34.121Z,12.30
2023-04-18T00:41:00.893Z,12.20
2023-04-18T00:43:28.152Z,12.20
2023-04-18T00:45:57.140Z,12.10
2023-04-18T00:48:24.042Z,12.20
2023-04-18T00:50:50.814Z,12.30
2023-04-18T00:53:17.633Z,12.40
2023-04-18T00:55:44.394Z,12.50
2023-04-18T00:58:11.489Z,12.50
2023-04-18T01:00:38.271Z,12.60
2023-04-18T01:03:05.156Z,12.60
2023-04-18T01:05:31.980Z,12.60
2023-04-18T01:08:01.226Z,12.60
2023-04-18T01:10:28.602Z,12.60
2023-04-18T01:13:16.559Z,12.50
2023-04-18T01:15:44.071Z,12.50
2023-04-18T01:18:11.726Z,12.50
2023-04-18T01:20:41.580Z,12.60
2023-04-18T01:23:10.322Z,12.60
2023-04-18T01:25:37.381Z,12.60
2023-04-18T01:28:04.731Z,12.60
2023-04-18T01:30:31.727Z,12.60
2023-04-18T01:32:58.600Z,12.70
2023-04-18T01:35:25.411Z,12.70
2023-04-18T01:37:52.246Z,12.60
2023-04-18T01:40:19.126Z,12.60
2023-04-18T01:42:45.957Z,12.70
2023-04-18T01:45:13.209Z,12.60
2023-04-18T01:47:40.176Z,12.60
2023-04-18T01:50:07.455Z,12.60
2023-04-18T01:52:34.183Z,12.50
2023-04-18T01:55:02.209Z,12.50
2023-04-18T01:57:29.063Z,12.50
2023-04-18T01:59:55.929Z,12.50
2023-04-18T02:02:22.850Z,12.60
2023-04-18T02:04:49.701Z,12.60
2023-04-18T02:07:16.466Z,12.60
2023-04-18T02:09:43.252Z,12.60
2023-04-18T02:12:10.149Z,12.60
2023-04-18T02:14:36.985Z,12.60
2023-04-18T02:17:03.815Z,12.60
2023-04-18T02:19:30.771Z,12.50
2023-04-18T02:21:57.637Z,12.60
2023-04-18T02:24:24.486Z,12.60
2023-04-18T02:26:51.364Z,12.60
2023-04-18T02:29:18.175Z,12.60
2023-04-18T02:31:44.971Z,12.60
2023-04-18T02:34:12.035Z,12.60
2023-04-18T02:36:38.964Z,12.60
2023-04-18T02:39:05.731Z,12.60
2023-04-18T02:41:32.575Z,12.60
2023-04-18T02:43:59.680Z,12.60
2023-04-18T02:46:26.461Z,12.60
2023-04-18T02:48:53.390Z,12.60
2023-04-18T02:51:20.156Z,12.60
2023-04-18T02:53:46.960Z,12.50
2023-04-18T02:56:17.027Z,12.50
2023-04-18T02:58:43.788Z,12.50
2023-04-18T03:01:10.857Z,12.40
2023-04-18T03:03:37.735Z,12.40
2023-04-18T03:06:04.654Z,12.40
2023-04-18T03:08:31.458Z,12.50
2023-04-18T03:10:58.290Z,12.50
2023-04-18T03:13:25.389Z,12.50
2023-04-18T03:15:52.125Z,12.50
2023-04-18T03:18:19.018Z,12.50
2023-04-18T03:20:45.878Z,12.50
2023-04-18T03:23:12.661Z,12.60
2023-04-18T03:25:39.480Z,12.60
2023-04-18T03:28:06.287Z,12.50
2023-04-18T03:30:33.210Z,12.50
2023-04-18T03:33:02.937Z,12.50
2023-04-18T03:35:29.857Z,12.60
2023-04-18T03:37:56.670Z,12.60
2023-04-18T03:40:23.485Z,12.70
2023-04-18T03:42:50.271Z,12.60
2023-04-18T03:45:17.071Z,12.70
2023-04-18T03:47:43.948Z,12.70
2023-04-18T03:50:11.144Z,12.70
2023-04-18T03:52:37.870Z,12.70
2023-04-18T03:55:05.070Z,12.60
2023-04-18T03:57:31.799Z,12.60
2023-04-18T03:59:58.964Z,12.50
2023-04-18T04:02:25.929Z,12.50
2023-04-18T04:04:52.848Z,12.50
2023-04-18T04:07:19.645Z,12.50
2023-04-18T04:09:46.439Z,12.50
2023-04-18T04:12:13.262Z,12.50
2023-04-18T04:14:40.050Z,12.50
2023-04-18T04:17:06.927Z,12.50
2023-04-18T04:19:33.723Z,12.60
2023-04-18T04:22:00.434Z,12.60
2023-04-18T04:24:29.121Z,12.60
2023-04-18T04:26:56.316Z,12.70
2023-04-18T04:29:23.895Z,12.80
2023-04-18T04:31:50.740Z,12.70
2023-04-18T04:34:17.657Z,12.80
2023-04-18T04:36:44.628Z,12.80
2023-04-18T04:39:11.886Z,12.80
2023-04-18T04:41:41.432Z,12.80
2023-04-18T04:44:09.515Z,12.80
2023-04-18T04:46:39.359Z,12.80
2023-04-18T04:49:06.504Z,12.80
2023-04-18T04:51:33.233Z,12.80
2023-04-18T04:54:00.042Z,12.90
2023-04-18T04:56:27.120Z,12.90
2023-04-18T04:58:56.127Z,12.90
2023-04-18T05:01:23.126Z,12.90
2023-04-18T05:03:51.547Z,12.90
2023-04-18T05:06:22.752Z,12.90
2023-04-18T05:08:50.132Z,12.90
2023-04-18T05:11:17.244Z,12.90
2023-04-18T05:13:44.033Z,12.90
2023-04-18T05:16:10.958Z,12.80
2023-04-18T05:18:39.332Z,12.80
2023-04-18T05:21:06.224Z,12.90
2023-04-18T05:23:34.815Z,12.90
2023-04-18T05:26:01.668Z,12.90
2023-04-18T05:28:28.474Z,12.90
2023-04-18T05:31:01.243Z,12.90
2023-04-18T05:33:31.407Z,12.90
2023-04-18T05:35:58.391Z,12.90
2023-04-18T05:38:25.262Z,12.90
2023-04-18T05:40:52.130Z,12.80
2023-04-18T05:43:19.507Z,12.80
2023-04-18T05:45:46.575Z,12.90
2023-04-18T05:48:13.592Z,12.90
2023-04-18T05:50:40.493Z,12.80
2023-04-18T05:53:07.259Z,12.80
2023-04-18T05:55:34.450Z,12.80
2023-04-18T05:58:01.300Z,12.90
2023-04-18T06:00:28.431Z,12.90
2023-04-18T06:02:55.464Z,13.00
2023-04-18T06:05:22.743Z,13.00
2023-04-18T06:07:49.882Z,13.00
2023-04-18T06:10:17.232Z,13.00
2023-04-18T06:12:44.052Z,13.10
2023-04-18T06:15:11.404Z,13.00
2023-04-18T06:17:38.279Z,12.90
2023-04-18T06:20:06.273Z,12.80
2023-04-18T06:22:36.201Z,12.90
2023-04-18T06:25:03.473Z,12.90
2023-04-18T06:27:31.411Z,13.00
2023-04-18T06:29:58.689Z,13.10
2023-04-18T06:32:25.747Z,13.20
2023-04-18T06:34:53.158Z,13.30
2023-04-18T06:37:20.155Z,13.30
2023-04-18T06:39:47.089Z,13.40
2023-04-18T06:42:13.920Z,13.40
2023-04-18T06:44:43.012Z,13.30
2023-04-18T06:47:10.564Z,13.40
2023-04-18T06:49:37.373Z,13.40
2023-04-18T06:52:04.326Z,13.40
2023-04-18T06:54:31.107Z,13.40
2023-04-18T06:56:57.871Z,13.40
2023-04-18T06:59:24.634Z,13.50
2023-04-18T07:01:51.486Z,13.50
2023-04-18T07:04:18.679Z,13.50
2023-04-18T07:06:45.856Z,13.60
2023-04-18T07:09:12.688Z,13.60
2023-04-18T07:11:40.612Z,13.60
2023-04-18T07:14:07.535Z,13.70
2023-04-18T07:16:34.801Z,13.70
2023-04-18T07:19:01.653Z,13.70
2023-04-18T07:21:28.420Z,13.80
2023-04-18T07:23:55.326Z,13.90
2023-04-18T07:26:22.251Z,14.00
2023-04-18T07:28:49.286Z,14.10
2023-04-18T07:31:16.495Z,14.20
2023-04-18T07:33:43.587Z,14.40
2023-04-18T07:36:11.056Z,14.40
2023-04-18T07:38:37.983Z,14.50
2023-04-18T07:41:04.881Z,14.50
2023-04-18T07:43:31.737Z,14.50
2023-04-18T07:45:58.650Z,14.50
2023-04-18T07:48:26.002Z,14.50
2023-04-18T07:50:53.239Z,14.60
2023-04-18T07:53:20.214Z,14.70
2023-04-18T07:55:46.979Z,14.70
2023-04-18T07:58:13.976Z,14.80
2023-04-18T08:00:42.612Z,14.90
2023-04-18T08:03:13.264Z,14.90
2023-04-18T08:05:40.997Z,14.80
2023-04-18T08:08:08.782Z,14.80
2023-04-18T08:10:35.751Z,14.70
2023-04-18T08:13:02.549Z,14.60
2023-04-18T08:15:31.545Z,14.50
2023-04-18T08:17:59.505Z,14.40
2023-04-18T08:20:26.482Z,14.30
2023-04-18T08:23:06.166Z,14.30
2023-04-18T08:25:36.369Z,14.20
2023-04-18T08:28:04.094Z,14.20
2023-04-18T08:30:31.218Z,14.30
2023-04-18T08:32:59.076Z,14.20
2023-04-18T08:35:25.926Z,14.20
2023-04-18T08:37:53.037Z,14.20
2023-04-18T08:40:20.211Z,14.10
2023-04-18T08:42:47.075Z,14.20
2023-04-18T08:45:14.164Z,14.40
2023-04-18T08:47:41.511Z,14.40
2023-04-18T08:50:09.521Z,14.50
2023-04-18T08:52:37.839Z,14.60
2023-04-18T08:55:05.495Z,14.70
2023-04-18T08:57:33.241Z,14.90
2023-04-18T09:00:01.533Z,15.00
2023-04-18T09:02:47.245Z,15.10
2023-04-18T09:05:19.551Z,15.20
2023-04-18T09:07:47.249Z,15.20
2023-04-18T09:10:15.440Z,15.30
2023-04-18T09:12:50.535Z,15.30
2023-04-18T09:15:20.251Z,15.30
2023-04-18T09:17:53.231Z,15.40
2023-04-18T09:20:41.239Z,15.50
2023-04-18T09:23:14.563Z,15.50
2023-04-18T09:25:44.423Z,15.50
2023-04-18T09:28:31.091Z,15.50
2023-04-18T09:30:59.329Z,15.60
2023-04-18T09:33:33.550Z,15.60
2023-04-18T09:36:19.311Z,15.60
2023-04-18T09:38:46.629Z,15.50
2023-04-18T09:41:15.750Z,15.40
2023-04-18T09:43:42.901Z,15.20
2023-04-18T09:46:09.810Z,15.20
2023-04-18T09:48:36.614Z,15.20
2023-04-18T09:51:10.753Z,15.00
2023-04-18T09:53:41.476Z,15.00
2023-04-18T09:56:15.418Z,15.00
2023-04-18T09:58:42.457Z,15.00
2023-04-18T10:01:09.405Z,15.00
2023-04-18T10:03:42.289Z,15.20
2023-04-18T10:06:12.191Z,15.40
2023-04-18T10:08:39.318Z,15.50
2023-04-18T10:11:06.521Z,15.60
2023-04-18T10:13:33.341Z,15.70
2023-04-18T10:16:00.149Z,15.90
2023-04-18T10:18:27.016Z,16.40
2023-04-18T10:21:02.003Z,17.10
2023-04-18T10:23:32.077Z,17.70
2023-04-18T10:25:59.335Z,18.20
2023-04-18T10:28:27.609Z,18.30
2023-04-18T10:30:56.360Z,18.20
2023-04-18T10:33:32.248Z,18.00
2023-04-18T10:36:03.934Z,17.80
2023-04-18T10:38:31.543Z,17.40
2023-04-18T10:41:16.530Z,17.00
2023-04-18T10:44:22.327Z,16.60
2023-04-18T10:46:52.173Z,16.20
2023-04-18T10:49:27.863Z,16.10
2023-04-18T10:51:56.250Z,16.10
2023-04-18T10:54:42.434Z,16.20
2023-04-18T10:57:10.445Z,16.30
2023-04-18T10:59:42.334Z,16.60
2023-04-18T11:02:40.418Z,16.80
2023-04-18T11:05:07.865Z,17.00
2023-04-18T11:07:36.253Z,17.10
2023-04-18T11:10:04.271Z,17.00
2023-04-18T11:12:35.506Z,16.90
2023-04-18T11:15:04.602Z,16.70
2023-04-18T11:17:36.021Z,16.40
2023-04-18T11:20:11.430Z,16.20
2023-04-18T11:22:45.111Z,16.00
2023-04-18T11:25:12.109Z,15.70
2023-04-18T11:27:41.680Z,15.60
2023-04-18T11:30:08.919Z,15.50
2023-04-18T11:32:36.391Z,15.40
2023-04-18T11:35:06.161Z,15.50
2023-04-18T11:37:33.127Z,15.60
2023-04-18T11:39:59.922Z,15.70
2023-04-18T11:42:28.337Z,15.80
2023-04-18T11:44:55.200Z,15.90
2023-04-18T11:47:31.796Z,15.90
2023-04-18T11:49:59.875Z,15.90
2023-04-18T11:52:30.809Z,15.80
2023-04-18T11:55:14.085Z,15.70
2023-04-18T11:57:41.123Z,15.70
2023-04-18T12:00:09.561Z,15.60
2023-04-18T12:02:44.192Z,15.40
2023-04-18T12:05:15.206Z,15.10
2023-04-18T12:07:44.395Z,15.00
2023-04-18T12:10:20.145Z,14.90
2023-04-18T12:12:50.955Z,14.90
2023-04-18T12:15:17.837Z,14.90
2023-04-18T12:17:45.417Z,14.90
2023-04-18T12:20:13.347Z,15.00
2023-04-18T12:22:45.235Z,15.20
2023-04-18T12:25:27.611Z,15.50
2023-04-18T12:28:14.441Z,15.70
2023-04-18T12:30:41.742Z,15.90
2023-04-18T12:33:11.565Z,16.00
2023-04-18T12:35:38.335Z,16.00
2023-04-18T12:38:05.799Z,16.10
2023-04-18T12:40:32.638Z,16.10
2023-04-18T12:43:00.572Z,16.20
2023-04-18T12:45:29.584Z,16.30
2023-04-18T12:47:56.424Z,16.50
2023-04-18T12:50:25.249Z,16.60
2023-04-18T12:52:56.860Z,16.70
2023-04-18T12:55:24.209Z,16.90
2023-04-18T12:57:51.832Z,17.10
2023-04-18T13:00:18.613Z,17.30
2023-04-18T13:02:46.085Z,17.40
2023-04-18T13:05:14.372Z,17.50
2023-04-18T13:07:42.462Z,17.50
2023-04-18T13:10:19.401Z,17.60
2023-04-18T13:12:46.610Z,17.70
2023-04-18T13:15:13.439Z,18.00
2023-04-18T13:17:40.320Z,18.00
2023-04-18T13:20:09.137Z,18.20
2023-04-18T13:22:39.325Z,18.40
2023-04-18T13:25:08.164Z,18.50
2023-04-18T13:27:35.120Z,18.60
2023-04-18T13:30:02.196Z,18.70
2023-04-18T13:32:28.968Z,18.70
2023-04-18T13:34:56.338Z,18.70
2023-04-18T13:37:23.315Z,18.70
2023-04-18T13:39:50.195Z,18.70
2023-04-18T13:42:18.631Z,18.80
2023-04-18T13:44:46.262Z,18.70
2023-04-18T13:47:13.095Z,18.70
2023-04-18T13:49:40.880Z,18.80
2023-04-18T13:52:07.863Z,18.90
2023-04-18T13:54:34.766Z,18.80
2023-04-18T13:57:04.510Z,18.80
2023-04-18T13:59:31.688Z,18.70
2023-04-18T14:01:58.743Z,18.50
2023-04-18T14:04:26.075Z,18.30
2023-04-18T14:06:52.982Z,18.10
2023-04-18T14:09:19.804Z,17.90
2023-04-18T14:11:46.686Z,17.70
2023-04-18T14:14:13.557Z,17.40
2023-04-18T14:16:40.335Z,17.20
2023-04-18T14:19:07.665Z,17.10
2023-04-18T14:21:34.422Z,16.90
2023-04-18T14:24:01.324Z,16.80
2023-04-18T14:26:28.212Z,16.70
2023-04-18T14:28:55.058Z,16.60
2023-04-18T14:31:22.681Z,16.60
2023-04-18T14:33:49.628Z,16.50
2023-04-18T14:36:16.985Z,16.40
2023-04-18T14:38:46.572Z,16.50
2023-04-18T14:41:13.455Z,16.70
2023-04-18T14:43:40.348Z,16.80
2023-04-18T14:46:14.270Z,16.90
2023-04-18T14:48:41.135Z,16.90
2023-04-18T14:51:07.982Z,16.90
2023-04-18T14:53:34.923Z,16.80
2023-04-18T14:56:01.689Z,16.70
2023-04-18T14:58:28.570Z,16.50
2023-04-18T15:00:55.733Z,16.40
2023-04-18T15:03:22.805Z,16.30
2023-04-18T15:05:49.805Z,16.10
2023-04-18T15:08:16.686Z,15.90
2023-04-18T15:10:44.551Z,15.80
2023-04-18T15:13:11.556Z,15.70
2023-04-18T15:15:39.757Z,15.60
2023-04-18T15:18:08.316Z,15.60
2023-04-18T15:20:37.153Z,15.50
2023-04-18T15:23:04.081Z,15.40
2023-04-18T15:25:31.093Z,15.40
2023-04-18T15:27:58.627Z,15.40
2023-04-18T15:30:26.057Z,15.50
2023-04-18T15:32:54.048Z,15.40
2023-04-18T15:35:21.074Z,15.40
2023-04-18T15:37:49.088Z,15.30
2023-04-18T15:40:18.788Z,15.40
2023-04-18T15:42:45.964Z,15.40
2023-04-18T15:45:13.029Z,15.40
2023-04-18T15:47:40.572Z,15.40
2023-04-18T15:50:08.819Z,15.40
2023-04-18T15:52:36.669Z,15.40
2023-04-18T15:55:04.862Z,15.40
2023-04-18T15:57:32.154Z,15.30
2023-04-18T15:59:59.658Z,15.30
2023-04-18T16:02:26.835Z,15.30
2023-04-18T16:04:53.825Z,15.30
2023-04-18T16:07:20.591Z,15.30
2023-04-18T16:09:47.417Z,15.20
2023-04-18T16:12:14.218Z,15.20
2023-04-18T16:14:40.979Z,15.30
2023-04-18T16:17:07.714Z,15.30
2023-04-18T16:19:38.221Z,15.30
2023-04-18T16:22:07.072Z,15.30
2023-04-18T16:24:33.990Z,15.30
2023-04-18T16:27:01.054Z,15.30
2023-04-18T16:29:27.858Z,15.30
2023-04-18T16:31:54.666Z,15.20
2023-04-18T16:34:21.458Z,15.10
2023-04-18T16:36:50.769Z,15.10
2023-04-18T16:39:18.756Z,15.00
2023-04-18T16:41:45.725Z,15.00
2023-04-18T16:44:12.782Z,15.00
2023-04-18T16:46:39.949Z,14.90
2023-04-18T16:49:06.846Z,14.90
2023-04-18T16:51:36.204Z,14.90
2023-04-18T16:54:03.734Z,14.80
2023-04-18T16:56:30.709Z,14.80
2023-04-18T16:58:58.354Z,14.80
2023-04-18T17:01:25.194Z,14.80
2023-04-18T17:03:52.094Z,14.80
2023-04-18T17:06:19.472Z,14.70
2023-04-18T17:08:46.453Z,14.70
2023-04-18T17:11:13.246Z,14.70
2023-04-18T17:13:40.095Z,14.70
2023-04-18T17:16:07.474Z,14.70
2023-04-18T17:18:34.313Z,14.60
2023-04-18T17:21:01.160Z,14.60
2023-04-18T17:23:27.949Z,14.60
2023-04-18T17:25:54.756Z,14.70
2023-04-18T17:28:23.717Z,14.70
2023-04-18T17:30:50.760Z,14.70
2023-04-18T17:33:17.545Z,14.70
2023-04-18T17:35:44.367Z,14.70
2023-04-18T17:38:11.409Z,14.70
2023-04-18T17:40:39.366Z,14.70
2023-04-18T17:43:06.238Z,14.70
2023-04-18T17:45:33.085Z,14.60
2023-04-18T17:48:02.258Z,14.60
2023-04-18T17:50:29.257Z,14.60
2023-04-18T17:52:56.029Z,14.60
2023-04-18T17:55:22.928Z,14.50
2023-04-18T17:57:49.761Z,14.50
2023-04-18T18:00:17.386Z,14.50
2023-04-18T18:02:44.291Z,14.50
2023-04-18T18:05:13.227Z,14.50
2023-04-18T18:07:42.982Z,14.50
2023-04-18T18:10:11.006Z,14.40
2023-04-18T18:12:38.278Z,14.40
2023-04-18T18:15:05.801Z,14.40
2023-04-18T18:17:32.640Z,14.40
2023-04-18T18:19:59.527Z,14.40
2023-04-18T18:22:26.987Z,14.40
2023-04-18T18:24:53.839Z,14.30
2023-04-18T18:27:20.759Z,14.30
2023-04-18T18:29:48.137Z,14.40
2023-04-18T18:32:15.077Z,14.30
2023-04-18T18:34:41.941Z,14.30
2023-04-18T18:37:08.752Z,14.30
2023-04-18T18:39:36.641Z,14.30
2023-04-18T18:42:03.582Z,14.30
2023-04-18T18:44:30.624Z,14.30
2023-04-18T18:46:58.742Z,14.30
2023-04-18T18:49:26.707Z,14.30
2023-04-18T18:51:53.489Z,14.30
2023-04-18T18:54:20.402Z,14.30
2023-04-18T18:56:47.172Z,14.30
2023-04-18T18:59:15.761Z,14.30
2023-04-18T19:01:42.817Z,14.30
2023-04-18T19:04:09.926Z,14.30
2023-04-18T19:06:36.986Z,14.30
2023-04-18T19:09:05.177Z,14.30
2023-04-18T19:11:31.997Z,14.30
2023-04-18T19:13:58.809Z,14.30
2023-04-18T19:16:25.821Z,14.30
2023-04-18T19:18:53.099Z,14.30
2023-04-18T19:21:20.269Z,14.30
2023-04-18T19:23:47.054Z,14.30
2023-04-18T19:26:13.906Z,14.30
2023-04-18T19:28:41.358Z,14.20
2023-04-18T19:31:09.498Z,14.30
2023-04-18T19:33:36.431Z,14.30
2023-04-18T19:36:03.365Z,14.30
2023-04-18T19:38:30.261Z,14.30
2023-04-18T19:40:57.074Z,14.30
2023-04-18T19:43:23.888Z,14.30
2023-04-18T19:45:52.559Z,14.30
2023-04-18T19:48:20.661Z,14.20
2023-04-18T19:50:47.603Z,14.30
2023-04-18T19:53:15.589Z,14.30
2023-04-18T19:55:44.406Z,14.30
2023-04-18T19:58:11.215Z,14.30
2023-04-18T20:00:38.062Z,14.20
2023-04-18T20:03:05.021Z,14.20
2023-04-18T20:05:32.035Z,14.20
2023-04-18T20:07:58.865Z,14.10
2023-04-18T20:10:25.765Z,14.10
2023-04-18T20:12:52.544Z,14.00
2023-04-18T20:15:19.337Z,13.90
2023-04-18T20:17:46.357Z,13.90
2023-04-18T20:20:13.115Z,13.90
2023-04-18T20:22:40.379Z,13.90
2023-04-18T20:25:07.430Z,13.90
2023-04-18T20:27:34.205Z,14.00
2023-04-18T20:30:00.943Z,14.00
2023-04-18T20:32:28.138Z,14.00
2023-04-18T20:34:54.973Z,13.90
2023-04-18T20:37:22.327Z,13.90
2023-04-18T20:39:49.195Z,13.80
2023-04-18T20:42:16.060Z,13.90
2023-04-18T20:44:44.755Z,13.80
2023-04-18T20:47:13.245Z,13.80
2023-04-18T20:49:41.535Z,13.80
2023-04-18T20:52:09.598Z,13.80
2023-04-18T20:54:36.433Z,13.90
2023-04-18T20:57:03.188Z,13.90
2023-04-18T20:59:30.018Z,13.90
2023-04-18T21:01:56.895Z,13.90
2023-04-18T21:04:24.592Z,13.90
2023-04-18T21:06:51.488Z,13.90
2023-04-18T21:09:18.383Z,13.90
2023-04-18T21:11:45.162Z,14.00
2023-04-18T21:14:11.925Z,14.00
2023-04-18T21:16:39.848Z,14.00
2023-04-18T21:19:07.063Z,14.00
2023-04-18T21:21:34.421Z,14.00
2023-04-18T21:24:01.866Z,14.00
2023-04-18T21:26:28.702Z,14.00
2023-04-18T21:28:59.952Z,14.00
2023-04-18T21:31:27.398Z,13.90
2023-04-18T21:33:58.625Z,13.90
2023-04-18T21:36:27.054Z,13.90
2023-04-18T21:38:57.527Z,13.90
2023-04-18T21:41:24.415Z,13.90
2023-04-18T21:43:51.290Z,13.90
2023-04-18T21:46:18.223Z,13.90
2023-04-18T21:48:46.049Z,13.90
2023-04-18T21:51:14.126Z,13.90
2023-04-18T21:53:41.028Z,13.80
2023-04-18T21:56:08.051Z,13.80
2023-04-18T21:58:34.927Z,13.80
2023-04-18T22:01:01.976Z,13.80
2023-04-18T22:03:29.155Z,13.80
2023-04-18T22:05:56.705Z,13.80
2023-04-18T22:08:25.931Z,13.80
2023-04-18T22:10:57.784Z,13.70
2023-04-18T22:13:25.583Z,13.70
2023-04-18T22:15:52.346Z,13.70
2023-04-18T22:18:19.192Z,13.70
2023-04-18T22:20:46.913Z,13.70
2023-04-18T22:23:13.828Z,13.70
2023-04-18T22:25:40.940Z,13.70
2023-04-18T22:28:07.861Z,13.70
2023-04-18T22:30:34.727Z,13.70
2023-04-18T22:33:01.719Z,13.70
2023-04-18T22:35:28.615Z,13.60
2023-04-18T22:37:55.841Z,13.70
2023-04-18T22:40:22.771Z,13.70
2023-04-18T22:42:51.975Z,13.70
2023-04-18T22:45:19.369Z,13.70
2023-04-18T22:47:46.771Z,13.60
2023-04-18T22:50:14.093Z,13.60
2023-04-18T22:52:41.268Z,13.60
2023-04-18T22:55:08.711Z,13.60
2023-04-18T22:57:35.499Z,13.70
2023-04-18T23:00:04.185Z,13.70
2023-04-18T23:02:31.218Z,13.70
2023-04-18T23:04:59.013Z,13.70
2023-04-18T23:07:25.811Z,13.70
2023-04-18T23:09:52.602Z,13.70
2023-04-18T23:12:19.507Z,13.70
2023-04-18T23:14:46.314Z,13.70
2023-04-18T23:17:13.105Z,13.60
2023-04-18T23:19:40.113Z,13.70
2023-04-18T23:22:06.925Z,13.70
2023-04-18T23:24:33.707Z,13.70
2023-04-18T23:27:01.457Z,13.70
2023-04-18T23:29:28.228Z,13.70
2023-04-18T23:31:55.186Z,13.60
2023-04-18T23:34:22.184Z,13.70
2023-04-18T23:36:48.966Z,13.70
2023-04-18T23:39:18.408Z,13.70
2023-04-18T23:41:45.611Z,13.70
2023-04-18T23:44:12.522Z,13.70
2023-04-18T23:46:39.471Z,13.80
2023-04-18T23:49:06.285Z,13.70
2023-04-18T23:51:33.099Z,13.70
2023-04-18T23:53:59.922Z,13.60
2023-04-18T23:56:27.451Z,13.50
2023-04-18T23:58:54.208Z,13.50
